Time;durP1;ratioP1;P1;durP2;ratioP2;P2;SDS_P1;SDS_P2;PMS_P1;PMS_P2;Temp;Humidity;BMP_temperature;BMP_pressure;BME280_temperature;BME280_humidity;BME280_pressure;Samples;Min_cycle;Max_cycle;Signal;HPM_P1;HPM_P2
2022/05/26 00:01:40;;;;;;;2.90;0.50;;;15.40;98.70;;;-146.41;100.00;57768.22;5019955;28;20132;-75
2022/05/26 00:04:09;;;;;;;0.75;0.40;;;15.40;99.20;;;-146.41;100.00;57768.22;5020124;28;20184;-72
2022/05/26 00:06:37;;;;;;;1.08;0.38;;;15.40;99.20;;;-146.41;100.00;57768.22;5015488;28;20045;-74
2022/05/26 00:09:04;;;;;;;2.22;0.40;;;15.30;99.20;;;-146.41;100.00;57768.22;5018503;28;20053;-72
2022/05/26 00:11:37;;;;;;;1.42;0.43;;;15.30;99.40;;;-146.41;100.00;57768.22;5020497;28;20069;-72
2022/05/26 00:14:09;;;;;;;1.73;0.50;;;15.30;99.70;;;-146.41;100.00;57768.22;5020951;28;20065;-74
2022/05/26 00:16:43;;;;;;;2.72;0.40;;;15.30;99.80;;;-146.41;100.00;57768.22;5019666;28;20057;-74
2022/05/26 00:19:17;;;;;;;3.38;0.40;;;15.20;99.70;;;-146.41;100.00;57768.22;5021346;28;20060;-72
2022/05/26 00:21:47;;;;;;;1.55;0.40;;;15.10;99.90;;;-146.41;100.00;57768.22;5021285;28;20120;-73
2022/05/26 00:24:14;;;;;;;1.13;0.40;;;15.10;99.90;;;-146.41;100.00;57768.22;5021139;28;20084;-73
2022/05/26 00:26:41;;;;;;;0.95;0.32;;;15.10;99.90;;;-146.41;100.00;57768.22;5017105;28;20104;-75
2022/05/26 00:29:08;;;;;;;2.67;0.55;;;15.10;99.90;;;-146.41;100.00;57768.22;5017329;28;20125;-72
2022/05/26 00:31:35;;;;;;;1.13;0.40;;;15.10;99.90;;;-146.41;100.00;57768.22;5019815;28;20499;-73
2022/05/26 00:34:02;;;;;;;4.68;0.75;;;15.10;99.90;;;-146.41;100.00;57768.22;5018162;28;20691;-72
2022/05/26 00:36:38;;;;;;;2.63;0.45;;;15.00;99.90;;;-146.41;100.00;57768.22;5017431;28;20581;-73
2022/05/26 00:39:16;;;;;;;3.13;0.40;;;15.00;99.90;;;-146.41;100.00;57768.22;5021247;28;20397;-72
2022/05/26 00:41:52;;;;;;;0.90;0.50;;;15.00;99.90;;;-146.41;100.00;57768.22;5020154;28;20045;-72
2022/05/26 00:44:20;;;;;;;4.63;0.60;;;15.00;99.90;;;-146.41;100.00;57768.22;5018817;28;20046;-74
2022/05/26 00:47:02;;;;;;;2.85;0.50;;;15.00;99.90;;;-146.41;100.00;57768.22;5021098;28;20128;-72
2022/05/26 00:49:58;;;;;;;4.60;0.60;;;15.10;99.90;;;-146.41;100.00;57768.22;5018582;28;20140;-75
2022/05/26 00:52:45;;;;;;;2.75;0.40;;;15.10;99.90;;;-146.41;100.00;57768.22;5020596;28;20041;-73
2022/05/26 00:55:40;;;;;;;2.35;0.50;;;15.10;99.90;;;-146.41;100.00;57768.22;5019527;28;20111;-71
2022/05/26 00:58:23;;;;;;;1.08;0.40;;;15.10;99.90;;;-146.41;100.00;57768.22;5017210;28;20061;-73
2022/05/26 01:00:50;;;;;;;1.80;0.40;;;15.10;99.90;;;-146.41;100.00;57768.22;5022730;28;20155;-73
2022/05/26 01:03:33;;;;;;;1.48;0.40;;;15.10;99.90;;;-146.41;100.00;57768.22;5022108;28;20129;-72
2022/05/26 01:06:24;;;;;;;3.95;0.50;;;15.10;99.90;;;-146.41;100.00;57768.22;5021109;28;20128;-72
2022/05/26 01:08:57;;;;;;;1.40;0.40;;;15.10;99.90;;;-146.41;100.00;57768.22;5008065;28;20085;-71
2022/05/26 01:11:28;;;;;;;2.67;0.38;;;15.10;99.90;;;-146.41;100.00;57768.22;5020423;28;20073;-72
2022/05/26 01:14:20;;;;;;;2.28;0.50;;;15.10;99.90;;;-146.41;100.00;57768.22;5022128;28;20077;-72
2022/05/26 01:17:02;;;;;;;3.80;0.30;;;15.10;99.90;;;-146.41;100.00;57768.22;5028067;28;20129;-71
2022/05/26 01:20:08;;;;;;;2.88;0.50;;;15.00;99.90;;;-146.41;100.00;57768.22;5026529;28;20124;-73
2022/05/26 01:23:46;;;;;;;1.67;0.50;;;15.00;99.90;;;-146.41;100.00;57768.22;5020278;28;20232;-73
2022/05/26 01:26:56;;;;;;;2.78;0.47;;;15.00;99.90;;;-146.41;100.00;57768.22;4997991;28;20132;-72
2022/05/26 01:30:05;;;;;;;2.97;0.50;;;15.00;99.90;;;-146.41;100.00;57768.22;5020690;28;20212;-72
2022/05/26 01:32:59;;;;;;;1.98;0.40;;;15.00;99.90;;;-146.41;100.00;57768.22;5022764;28;20394;-73
2022/05/26 01:36:10;;;;;;;3.53;0.60;;;15.00;99.90;;;-146.41;100.00;57768.22;5019824;28;20044;-74
2022/05/26 01:39:04;;;;;;;3.22;0.50;;;14.90;99.90;;;-146.41;100.00;57768.22;5018589;28;20136;-72
2022/05/26 01:41:56;;;;;;;1.75;0.50;;;15.00;99.90;;;-146.41;100.00;57768.22;5021026;28;20053;-72
2022/05/26 01:45:20;;;;;;;3.00;0.77;;;15.00;99.90;;;-146.41;100.00;57768.22;5019014;28;20049;-73
2022/05/26 01:48:02;;;;;;;0.93;0.35;;;15.00;99.90;;;-146.41;100.00;57768.22;5013251;28;20363;-72
2022/05/26 01:50:50;;;;;;;3.70;0.60;;;15.00;99.90;;;-146.41;100.00;57768.22;5020724;28;20069;-72
2022/05/26 01:53:39;;;;;;;2.10;0.50;;;15.00;99.90;;;-146.41;100.00;57768.22;5021517;28;20045;-72
2022/05/26 01:56:17;;;;;;;2.70;0.55;;;15.00;99.90;;;-146.41;100.00;57768.22;5019978;28;20160;-72
2022/05/26 01:58:49;;;;;;;2.10;0.40;;;15.00;99.90;;;-146.41;100.00;57768.22;5018967;28;20132;-71
2022/05/26 02:01:25;;;;;;;5.82;0.47;;;14.90;99.90;;;-146.41;100.00;57768.22;5016498;28;20479;-72
2022/05/26 02:03:54;;;;;;;2.78;0.60;;;14.90;99.90;;;-146.41;100.00;57768.22;5015387;28;20214;-72
2022/05/26 02:06:33;;;;;;;1.40;0.40;;;15.00;99.90;;;-146.41;100.00;57768.22;5022825;28;20143;-72
2022/05/26 02:09:09;;;;;;;3.65;0.40;;;14.90;99.90;;;-146.41;100.00;57768.22;5041289;28;20052;-72
2022/05/26 02:11:54;;;;;;;2.25;0.40;;;14.80;99.90;;;-146.41;100.00;57768.22;5022117;28;20132;-72
2022/05/26 02:14:37;;;;;;;2.53;0.50;;;14.90;99.90;;;-146.41;100.00;57768.22;5024536;28;20093;-72
2022/05/26 02:17:14;;;;;;;1.15;0.40;;;14.80;99.90;;;-146.41;100.00;57768.22;5023588;28;20133;-71
2022/05/26 02:20:26;;;;;;;2.67;0.40;;;14.80;99.90;;;-146.41;100.00;57768.22;5023840;28;20169;-75
2022/05/26 02:23:26;;;;;;;2.15;0.70;;;14.70;99.90;;;-146.41;100.00;57768.22;5016807;28;20490;-72
2022/05/26 02:25:55;;;;;;;3.85;0.55;;;14.70;99.90;;;-146.41;100.00;57768.22;5027101;28;20475;-73
2022/05/26 02:28:22;;;;;;;2.92;0.80;;;14.70;99.90;;;-146.41;100.00;57768.22;5024672;28;20145;-74
2022/05/26 02:30:49;;;;;;;2.03;0.50;;;14.60;99.90;;;-146.41;100.00;57768.22;5021811;28;20144;-74
2022/05/26 02:33:18;;;;;;;0.52;0.25;;;14.50;99.90;;;-146.41;100.00;57768.22;5022395;28;20575;-74
2022/05/26 02:35:49;;;;;;;0.95;0.40;;;14.40;99.90;;;-146.41;100.00;57768.22;5025444;28;20045;-73
2022/05/26 02:38:22;;;;;;;4.45;0.60;;;14.40;99.90;;;-146.41;100.00;57768.22;5021760;28;20112;-71
2022/05/26 02:40:54;;;;;;;2.15;0.50;;;14.30;99.90;;;-146.41;100.00;57768.22;5026066;28;20042;-73
2022/05/26 02:43:26;;;;;;;2.28;0.52;;;14.30;99.90;;;-146.41;100.00;57768.22;5023815;28;20061;-72
2022/05/26 02:46:35;;;;;;;4.23;0.70;;;14.30;99.90;;;-146.41;100.00;57768.22;5023909;28;20038;-71
2022/05/26 02:49:21;;;;;;;1.55;0.40;;;14.30;99.90;;;-146.41;100.00;57768.22;5013530;28;20145;-73
2022/05/26 02:52:13;;;;;;;5.82;0.50;;;14.30;99.90;;;-146.41;100.00;57768.22;5018386;28;20072;-73
2022/05/26 02:54:49;;;;;;;2.40;0.50;;;14.20;99.90;;;-146.41;100.00;57768.22;5024574;28;20081;-75
2022/05/26 02:57:35;;;;;;;2.83;0.40;;;14.20;99.90;;;-146.41;100.00;57768.22;5023633;28;20127;-74
2022/05/26 03:00:16;;;;;;;2.30;0.50;;;14.20;99.90;;;-146.41;100.00;57768.22;5024482;28;20050;-73
2022/05/26 03:03:01;;;;;;;1.95;0.50;;;14.30;99.90;;;-146.41;100.00;57768.22;5018586;28;20081;-72
2022/05/26 03:05:30;;;;;;;2.47;0.50;;;14.30;99.90;;;-146.41;100.00;57768.22;5020043;28;20125;-72
2022/05/26 03:08:00;;;;;;;2.88;0.70;;;14.30;99.90;;;-146.41;100.00;57768.22;5021252;28;20132;-72
2022/05/26 03:10:31;;;;;;;2.45;0.43;;;14.30;99.90;;;-146.41;100.00;57768.22;5023608;28;20845;-72
2022/05/26 03:13:00;;;;;;;1.67;0.40;;;14.30;99.90;;;-146.41;100.00;57768.22;5019524;28;20092;-75
2022/05/26 03:15:30;;;;;;;3.33;0.60;;;14.20;99.90;;;-146.41;100.00;57768.22;5023716;28;20144;-71
2022/05/26 03:18:01;;;;;;;3.72;0.80;;;14.20;99.90;;;-146.41;100.00;57768.22;5023846;28;20138;-72
2022/05/26 03:20:28;;;;;;;1.63;0.38;;;14.20;99.90;;;-146.41;100.00;57768.22;5024287;28;20054;-73
2022/05/26 03:22:56;;;;;;;4.45;0.88;;;14.20;99.90;;;-146.41;100.00;57768.22;5032060;28;20103;-72
2022/05/26 03:25:23;;;;;;;2.00;0.70;;;14.20;99.90;;;-146.41;100.00;57768.22;5025000;28;20073;-72
2022/05/26 03:27:50;;;;;;;3.40;0.47;;;14.20;99.90;;;-146.41;100.00;57768.22;5020933;28;20156;-72
2022/05/26 03:30:17;;;;;;;3.15;0.60;;;14.20;99.90;;;-146.41;100.00;57768.22;5023696;28;20210;-72
2022/05/26 03:32:46;;;;;;;2.70;0.50;;;14.10;99.90;;;-146.41;100.00;57768.22;5023920;28;20080;-72
2022/05/26 03:40:46;;;;;;;3.88;0.50;;;14.10;99.90;;;-146.41;100.00;57768.22;5011270;28;20157;-72
2022/05/26 03:43:15;;;;;;;3.00;0.65;;;14.10;99.90;;;-146.41;100.00;57768.22;5006366;28;20111;-74
2022/05/26 03:45:43;;;;;;;6.35;0.60;;;14.10;99.90;;;-146.41;100.00;57768.22;5016903;28;20060;-72
2022/05/26 03:48:10;;;;;;;2.95;0.57;;;14.10;99.90;;;-146.41;100.00;57768.22;4991099;28;20044;-73
2022/05/26 03:50:37;;;;;;;1.92;0.47;;;14.10;99.90;;;-146.41;100.00;57768.22;5022276;28;20045;-73
2022/05/26 03:53:05;;;;;;;3.28;0.63;;;14.10;99.90;;;-146.41;100.00;57768.22;5017992;28;20056;-73
2022/05/26 03:55:32;;;;;;;2.75;0.70;;;14.10;99.90;;;-146.41;100.00;57768.22;5018415;28;20132;-72
2022/05/26 03:58:01;;;;;;;3.25;0.60;;;14.10;99.90;;;-146.41;100.00;57768.22;5018142;28;20523;-71
2022/05/26 04:00:28;;;;;;;3.70;0.60;;;14.10;99.90;;;-146.41;100.00;57768.22;5021100;28;20415;-74
2022/05/26 04:02:55;;;;;;;2.90;0.57;;;14.10;99.90;;;-146.41;100.00;57768.22;5018569;28;20133;-76
2022/05/26 04:05:22;;;;;;;2.17;0.68;;;14.00;99.90;;;-146.41;100.00;57768.22;5020803;28;20096;-72
2022/05/26 04:07:49;;;;;;;3.08;0.70;;;14.10;99.90;;;-146.41;100.00;57768.22;5022139;28;20050;-72
2022/05/26 04:10:17;;;;;;;2.47;0.60;;;14.10;99.90;;;-146.41;100.00;57768.22;5018541;28;20096;-72
2022/05/26 04:12:44;;;;;;;3.80;0.70;;;14.10;99.90;;;-146.41;100.00;57768.22;5023569;28;20120;-70
2022/05/26 04:15:12;;;;;;;1.95;0.55;;;14.10;99.90;;;-146.41;100.00;57768.22;5017624;28;20128;-71
2022/05/26 04:17:40;;;;;;;1.98;0.50;;;14.10;99.90;;;-146.41;100.00;57768.22;5019694;28;20351;-71
2022/05/26 04:20:12;;;;;;;4.68;0.50;;;14.10;99.90;;;-146.41;100.00;57768.22;5022508;28;20135;-71
2022/05/26 04:22:40;;;;;;;1.30;0.60;;;14.20;99.90;;;-146.41;100.00;57768.22;5022365;28;20462;-72
2022/05/26 04:25:09;;;;;;;1.90;0.60;;;14.20;99.90;;;-146.41;100.00;57768.22;5018887;28;20136;-71
2022/05/26 04:27:37;;;;;;;2.35;0.70;;;14.20;99.90;;;-146.41;100.00;57768.22;5023758;28;20157;-71
2022/05/26 04:30:07;;;;;;;3.70;0.60;;;14.20;99.90;;;-146.41;100.00;57768.22;5017996;28;20138;-71
2022/05/26 04:32:34;;;;;;;2.35;0.70;;;14.10;99.90;;;-146.41;100.00;57768.22;5020379;28;20132;-71
2022/05/26 04:35:02;;;;;;;2.50;0.60;;;14.00;99.90;;;-146.41;100.00;57768.22;5019672;28;20103;-72
2022/05/26 04:37:30;;;;;;;2.25;0.50;;;14.00;99.90;;;-146.41;100.00;57768.22;5022252;28;20081;-74
2022/05/26 04:39:58;;;;;;;1.67;0.43;;;14.10;99.90;;;-146.41;100.00;57768.22;5019798;28;20140;-75
2022/05/26 04:42:27;;;;;;;4.93;0.60;;;14.20;99.90;;;-146.41;100.00;57768.22;5021257;28;20112;-72
2022/05/26 04:44:54;;;;;;;2.72;0.50;;;14.30;99.90;;;-146.41;100.00;57768.22;5015897;28;20121;-71
2022/05/26 04:47:21;;;;;;;5.43;0.60;;;14.30;99.90;;;-146.41;100.00;57768.22;5022362;28;20077;-71
2022/05/26 04:49:49;;;;;;;1.98;0.60;;;14.30;99.90;;;-146.41;100.00;57768.22;5021600;28;20108;-70
2022/05/26 04:52:20;;;;;;;2.88;0.60;;;14.30;99.90;;;-146.41;100.00;57768.22;5019366;28;20046;-71
2022/05/26 04:54:48;;;;;;;3.92;0.50;;;14.30;99.90;;;-146.41;100.00;57768.22;5020465;28;20076;-70
2022/05/26 04:57:18;;;;;;;5.38;0.63;;;14.40;99.90;;;-146.41;100.00;57768.22;5021647;28;20081;-71
2022/05/26 04:59:46;;;;;;;2.15;0.50;;;14.40;99.90;;;-146.41;100.00;57768.22;5018709;28;20141;-71
2022/05/26 05:02:15;;;;;;;5.18;0.50;;;14.50;99.90;;;-146.41;100.00;57768.22;5013374;28;20048;-73
2022/05/26 05:04:44;;;;;;;3.38;0.63;;;14.50;99.90;;;-146.41;100.00;57768.22;5018581;28;20552;-70
2022/05/26 05:07:12;;;;;;;4.57;0.65;;;14.60;99.90;;;-146.41;100.00;57768.22;5017495;28;20802;-73
2022/05/26 05:09:39;;;;;;;2.83;0.60;;;14.70;99.90;;;-146.41;100.00;57768.22;5019799;28;20081;-71
2022/05/26 05:12:12;;;;;;;5.15;0.60;;;14.70;99.90;;;-146.41;100.00;57768.22;5016212;28;20045;-71
2022/05/26 05:14:47;;;;;;;3.45;0.80;;;14.70;99.90;;;-146.41;100.00;57768.22;5022784;28;20132;-71
2022/05/26 05:17:16;;;;;;;2.60;0.70;;;14.60;99.90;;;-146.41;100.00;57768.22;5023751;28;20056;-72
2022/05/26 05:19:44;;;;;;;5.13;0.90;;;14.50;99.90;;;-146.41;100.00;57768.22;5017201;28;20277;-71
2022/05/26 05:22:29;;;;;;;3.50;0.63;;;14.60;99.90;;;-146.41;100.00;57768.22;5017346;28;20558;-74
2022/05/26 05:25:03;;;;;;;4.88;0.55;;;14.70;99.90;;;-146.41;100.00;57768.22;5019756;28;20137;-71
2022/05/26 05:27:41;;;;;;;2.08;0.68;;;14.80;99.90;;;-146.41;100.00;57768.22;5017470;28;20518;-71
2022/05/26 05:30:34;;;;;;;2.70;0.60;;;14.90;99.90;;;-146.41;100.00;57768.22;5017655;28;20480;-70
2022/05/26 05:33:23;;;;;;;;;;;14.90;99.90;;;-146.41;100.00;57768.22;5020504;28;20053;-72
2022/05/26 05:36:20;;;;;;;5.20;1.50;;;15.00;99.90;;;-146.41;100.00;57768.22;5013244;28;19929;-75
2022/05/26 05:38:48;;;;;;;4.30;0.82;;;15.10;99.90;;;-146.41;100.00;57768.22;5018909;28;20158;-71
2022/05/26 05:41:15;;;;;;;4.78;0.98;;;15.00;99.90;;;-146.41;100.00;57768.22;5019095;28;20045;-73
2022/05/26 05:43:42;;;;;;;3.35;0.50;;;15.00;99.90;;;-146.41;100.00;57768.22;5016246;28;20043;-74
2022/05/26 05:46:11;;;;;;;5.38;0.80;;;15.00;99.90;;;-146.41;100.00;57768.22;5019314;28;20083;-72
2022/05/26 05:48:38;;;;;;;4.13;0.85;;;15.00;99.90;;;-146.41;100.00;57768.22;5020758;28;20076;-76
2022/05/26 05:51:05;;;;;;;2.30;0.68;;;15.00;99.90;;;-146.41;100.00;57768.22;5019434;28;20042;-76
2022/05/26 05:53:32;;;;;;;4.07;0.70;;;15.00;99.90;;;-146.41;100.00;57768.22;5018119;28;20128;-72
2022/05/26 05:55:59;;;;;;;4.50;0.82;;;15.10;99.90;;;-146.41;100.00;57768.22;5019604;28;20201;-73
2022/05/26 05:58:26;;;;;;;5.10;0.75;;;15.00;99.90;;;-146.41;100.00;57768.22;5018073;28;20076;-72
2022/05/26 06:00:53;;;;;;;2.85;0.68;;;15.00;99.90;;;-146.41;100.00;57768.22;5020559;28;20046;-73
2022/05/26 06:03:21;;;;;;;1.88;0.60;;;15.10;99.90;;;-146.41;100.00;57768.22;5017440;28;20060;-72
2022/05/26 06:05:48;;;;;;;3.97;0.80;;;15.10;99.90;;;-146.41;100.00;57768.22;5017668;28;20084;-71
2022/05/26 06:08:15;;;;;;;6.00;0.90;;;15.30;99.90;;;-146.41;100.00;57768.22;5017836;28;20133;-72
2022/05/26 06:10:42;;;;;;;3.50;0.70;;;15.20;99.90;;;-146.41;100.00;57768.22;5021574;28;20128;-71
2022/05/26 06:13:09;;;;;;;2.30;0.57;;;15.30;99.90;;;-146.41;100.00;57768.22;5024322;28;20586;-73
2022/05/26 06:15:36;;;;;;;2.83;0.70;;;15.30;99.90;;;-146.41;100.00;57768.22;5021833;28;20132;-71
2022/05/26 06:18:06;;;;;;;8.10;0.93;;;15.40;99.90;;;-146.41;100.00;57768.22;5021539;28;20144;-72
2022/05/26 06:20:32;;;;;;;3.45;0.68;;;15.50;99.90;;;-146.41;100.00;57768.22;5017769;28;20088;-72
2022/05/26 06:23:00;;;;;;;3.35;0.70;;;15.50;99.90;;;-146.41;100.00;57768.22;5022115;28;20507;-72
2022/05/26 06:25:27;;;;;;;5.25;0.70;;;15.60;99.90;;;-146.41;100.00;57768.22;5020393;28;20037;-72
2022/05/26 06:30:39;;;;;;;2.95;0.82;;;15.70;99.90;;;-146.41;100.00;57768.22;5021722;28;20069;-73
2022/05/26 06:38:43;;;;;;;4.90;1.13;;;16.10;99.90;;;-146.41;100.00;57768.22;5023222;28;20132;-72
2022/05/26 06:44:03;;;;;;;5.07;0.77;;;16.10;99.90;;;-146.41;100.00;57768.22;5017897;28;20069;-72
2022/05/26 06:46:30;;;;;;;1.73;0.60;;;16.10;99.90;;;-146.41;100.00;57768.22;5020998;28;20045;-72
2022/05/26 06:48:58;;;;;;;3.33;0.73;;;16.10;99.90;;;-146.41;100.00;57768.22;5021754;28;20049;-71
2022/05/26 06:51:28;;;;;;;2.80;0.70;;;16.20;99.90;;;-146.41;100.00;57768.22;5024246;28;20052;-73
2022/05/26 06:53:55;;;;;;;2.85;0.70;;;16.20;99.90;;;-146.41;100.00;57768.22;5023782;28;20107;-72
2022/05/26 06:56:22;;;;;;;3.67;0.63;;;16.30;99.90;;;-146.41;100.00;57768.22;5025945;28;20258;-72
2022/05/26 06:58:49;;;;;;;5.28;0.70;;;16.30;99.90;;;-146.41;100.00;57768.22;5027554;28;20080;-72
2022/05/26 07:01:17;;;;;;;1.67;0.60;;;16.20;99.90;;;-146.41;100.00;57768.22;5026903;28;20182;-72
2022/05/26 07:03:44;;;;;;;2.90;0.70;;;16.10;99.90;;;-146.41;100.00;57768.22;5027345;28;20096;-73
2022/05/26 07:06:22;;;;;;;4.70;0.77;;;16.10;99.90;;;-146.41;100.00;57768.22;5021925;28;20057;-72
2022/05/26 07:08:50;;;;;;;4.50;0.70;;;16.10;99.90;;;-146.41;100.00;57768.22;5022522;28;20049;-73
2022/05/26 07:11:18;;;;;;;2.65;0.80;;;15.90;99.90;;;-146.41;100.00;57768.22;5022843;28;20128;-74
2022/05/26 07:13:46;;;;;;;2.88;0.50;;;16.00;99.90;;;-146.41;100.00;57768.22;5022545;28;20334;-73
2022/05/26 07:16:13;;;;;;;3.78;0.75;;;15.90;99.90;;;-146.41;100.00;57768.22;5022057;28;20049;-72
2022/05/26 07:18:41;;;;;;;2.60;0.50;;;16.00;99.90;;;-146.41;100.00;57768.22;5024276;28;20592;-73
2022/05/26 07:21:10;;;;;;;4.05;0.70;;;16.00;99.90;;;-146.41;100.00;57768.22;5026708;28;20427;-72
2022/05/26 07:23:37;;;;;;;3.88;0.75;;;16.00;99.90;;;-146.41;100.00;57768.22;5024003;28;20540;-72
2022/05/26 07:26:06;;;;;;;4.32;0.70;;;15.90;99.90;;;-146.41;100.00;57768.22;5027231;28;20140;-72
2022/05/26 07:28:35;;;;;;;1.70;0.60;;;15.90;99.90;;;-146.41;100.00;57768.22;5025839;28;20133;-73
2022/05/26 07:31:02;;;;;;;3.33;0.75;;;15.90;99.90;;;-146.41;100.00;57768.22;5022096;28;20140;-72
2022/05/26 07:33:29;;;;;;;3.20;0.80;;;15.90;99.90;;;-146.41;100.00;57768.22;5018886;28;20055;-74
2022/05/26 07:35:56;;;;;;;2.50;0.73;;;16.00;99.90;;;-146.41;100.00;57768.22;5026239;28;20053;-72
2022/05/26 07:41:20;;;;;;;3.15;0.88;;;15.90;99.90;;;-146.41;100.00;57768.22;5024166;28;20053;-71
2022/05/26 07:43:54;;;;;;;4.07;1.00;;;15.80;99.90;;;-146.41;100.00;57768.22;5024009;28;20084;-72
2022/05/26 07:46:23;;;;;;;3.13;0.80;;;15.70;99.90;;;-146.41;100.00;57768.22;5025175;28;20124;-71
2022/05/26 07:48:52;;;;;;;2.95;0.77;;;15.60;99.90;;;-146.41;100.00;57768.22;5027433;28;20045;-73
2022/05/26 07:51:21;;;;;;;4.15;1.00;;;15.60;99.90;;;-146.41;100.00;57768.22;5026580;28;20049;-73
2022/05/26 07:53:48;;;;;;;2.53;0.68;;;15.70;99.90;;;-146.41;100.00;57768.22;5021532;28;20144;-73
2022/05/26 07:56:16;;;;;;;3.03;0.70;;;15.80;99.90;;;-146.41;100.00;57768.22;5018135;28;20479;-74
2022/05/26 07:58:43;;;;;;;3.50;1.00;;;15.90;99.90;;;-146.41;100.00;57768.22;5018267;28;20091;-72
2022/05/26 08:01:11;;;;;;;4.55;0.90;;;15.80;99.90;;;-146.41;100.00;57768.22;5013867;28;20056;-72
2022/05/26 08:03:38;;;;;;;5.60;1.10;;;15.70;99.90;;;-146.41;100.00;57768.22;5019145;28;20067;-73
2022/05/26 08:06:06;;;;;;;4.43;1.15;;;15.70;99.90;;;-146.41;100.00;57768.22;5021479;28;20088;-73
2022/05/26 08:08:35;;;;;;;3.85;1.58;;;15.60;99.90;;;-146.41;100.00;57768.22;5019417;28;20083;-73
2022/05/26 08:11:02;;;;;;;5.90;1.65;;;15.70;99.90;;;-146.41;100.00;57768.22;5019346;28;20591;-73
2022/05/26 08:13:29;;;;;;;4.05;1.50;;;15.70;99.90;;;-146.41;100.00;57768.22;5019462;28;20065;-72
2022/05/26 08:15:57;;;;;;;4.13;1.35;;;15.90;99.90;;;-146.41;100.00;57768.22;5020397;28;20143;-72
2022/05/26 08:18:25;;;;;;;5.05;1.67;;;16.20;99.90;;;-146.41;100.00;57768.22;5017204;28;20052;-73
2022/05/26 08:20:52;;;;;;;3.58;1.30;;;16.40;99.90;;;-146.41;100.00;57768.22;5017812;28;20528;-73
2022/05/26 08:23:23;;;;;;;5.07;1.10;;;16.70;99.90;;;-146.41;100.00;57768.22;5017582;28;20144;-73
2022/05/26 08:25:50;;;;;;;4.25;1.02;;;16.90;99.90;;;-146.41;100.00;57768.22;5017563;28;20050;-74
2022/05/26 08:28:18;;;;;;;2.70;0.90;;;16.90;99.90;;;-146.41;100.00;57768.22;5020141;28;20060;-72
2022/05/26 08:30:44;;;;;;;2.65;0.90;;;16.80;99.90;;;-146.41;100.00;57768.22;5018134;28;20080;-72
2022/05/26 08:33:11;;;;;;;3.85;0.82;;;17.00;99.90;;;-146.41;100.00;57768.22;5020371;28;20108;-72
2022/05/26 08:35:38;;;;;;;4.50;1.10;;;17.00;99.90;;;-146.41;100.00;57768.22;5021477;28;20424;-73
2022/05/26 08:38:06;;;;;;;1.38;0.77;;;16.90;99.90;;;-146.41;100.00;57768.22;5021537;28;20080;-72
2022/05/26 08:40:37;;;;;;;3.78;0.80;;;16.90;99.90;;;-146.41;100.00;57768.22;5019045;28;20084;-74
2022/05/26 08:43:09;;;;;;;2.97;0.80;;;16.80;99.90;;;-146.41;100.00;57768.22;5020133;28;20515;-74
2022/05/26 08:45:44;;;;;;;3.58;1.00;;;16.70;99.90;;;-146.41;100.00;57768.22;5014293;28;20358;-72
2022/05/26 08:48:15;;;;;;;3.33;0.90;;;16.70;99.90;;;-146.41;100.00;57768.22;5015773;28;20117;-72
2022/05/26 08:50:42;;;;;;;2.38;0.90;;;16.80;99.90;;;-146.41;100.00;57768.22;5020302;28;20180;-72
2022/05/26 08:53:32;;;;;;;2.95;0.77;;;16.90;99.90;;;-146.41;100.00;57768.22;5015656;28;20071;-73
2022/05/26 08:56:01;;;;;;;2.05;0.60;;;16.90;99.90;;;-146.41;100.00;57768.22;5016789;28;20046;-73
2022/05/26 08:58:42;;;;;;;6.28;0.80;;;16.90;99.90;;;-146.41;100.00;57768.22;5021308;28;20053;-72
2022/05/26 09:01:13;;;;;;;2.47;0.70;;;17.00;99.90;;;-146.41;100.00;57768.22;5017841;28;20064;-72
2022/05/26 09:03:40;;;;;;;2.78;0.85;;;17.10;99.90;;;-146.41;100.00;57768.22;5019628;28;20538;-72
2022/05/26 09:06:19;;;;;;;1.65;0.63;;;17.10;99.90;;;-146.41;100.00;57768.22;5014412;28;20530;-77
2022/05/26 09:14:33;;;;;;;2.22;0.75;;;16.90;99.90;;;-146.41;100.00;57768.22;5017823;28;20070;-72
2022/05/26 09:17:10;;;;;;;2.10;0.85;;;17.00;99.90;;;-146.41;100.00;57768.22;5019569;28;20112;-73
2022/05/26 09:19:43;;;;;;;3.42;1.02;;;17.10;99.90;;;-146.41;100.00;57768.22;5020321;28;20709;-73
2022/05/26 09:22:39;;;;;;;4.45;1.00;;;17.20;99.90;;;-146.41;100.00;57768.22;5011224;28;20050;-74
2022/05/26 09:25:13;;;;;;;1.30;0.80;;;17.20;99.90;;;-146.41;100.00;57768.22;5016690;28;20154;-73
2022/05/26 09:27:50;;;;;;;3.95;0.98;;;17.00;99.90;;;-146.41;100.00;57768.22;5015806;28;20066;-74
2022/05/26 09:30:33;;;;;;;3.47;0.90;;;16.80;99.90;;;-146.41;100.00;57768.22;5018210;28;20053;-73
2022/05/26 09:33:00;;;;;;;2.15;1.08;;;16.60;99.90;;;-146.41;100.00;57768.22;5013401;28;20127;-72
2022/05/26 09:35:34;;;;;;;2.05;0.90;;;16.60;99.90;;;-146.41;100.00;57768.22;5010388;28;20069;-71
2022/05/26 09:38:06;;;;;;;3.13;1.00;;;16.50;99.90;;;-146.41;100.00;57768.22;5012883;28;20053;-72
2022/05/26 09:40:46;;;;;;;3.92;1.10;;;16.50;99.90;;;-146.41;100.00;57768.22;5015441;28;20127;-70
2022/05/26 09:43:15;;;;;;;2.63;0.93;;;16.50;99.90;;;-146.41;100.00;57768.22;5015166;28;20049;-72
2022/05/26 09:45:50;;;;;;;4.30;0.90;;;16.50;99.90;;;-146.41;100.00;57768.22;5014785;28;20499;-71
2022/05/26 09:48:35;;;;;;;2.15;0.85;;;16.50;99.90;;;-146.41;100.00;57768.22;5012928;28;20073;-75
2022/05/26 09:51:25;;;;;;;3.15;1.00;;;16.50;99.90;;;-146.41;100.00;57768.22;5015798;28;20124;-70
2022/05/26 09:53:54;;;;;;;3.53;0.73;;;16.50;99.90;;;-146.41;100.00;57768.22;5016196;28;20124;-71
2022/05/26 09:56:42;;;;;;;2.33;0.90;;;16.40;99.90;;;-146.41;100.00;57768.22;5016882;28;20057;-72
2022/05/26 09:59:34;;;;;;;6.13;1.45;;;16.40;99.90;;;-146.41;100.00;57768.22;5020303;28;20564;-72
2022/05/26 10:02:26;;;;;;;4.82;1.77;;;16.40;99.90;;;-146.41;100.00;57768.22;5014847;28;20650;-71
2022/05/26 10:04:59;;;;;;;1.83;0.80;;;16.50;99.90;;;-146.41;100.00;57768.22;5013732;28;20491;-72
2022/05/26 10:07:38;;;;;;;;;;;16.70;99.90;;;-146.41;100.00;57768.22;5015412;28;20518;-72
2022/05/26 10:10:29;;;;;;;4.43;1.02;;;16.90;99.90;;;-146.41;100.00;57768.22;5018102;28;19975;-73
2022/05/26 10:13:18;;;;;;;2.88;0.90;;;17.40;99.90;;;-146.41;100.00;57768.22;5016089;28;20479;-72
2022/05/26 10:16:25;;;;;;;4.30;0.70;;;17.80;99.90;;;-146.41;100.00;57768.22;5013559;28;20392;-72
2022/05/26 10:18:58;;;;;;;4.10;0.90;;;18.10;99.90;;;-146.41;100.00;57768.22;5016932;28;20049;-74
2022/05/26 10:21:57;;;;;;;4.60;1.23;;;18.70;99.90;;;-146.41;100.00;57768.22;5016353;28;20045;-72
2022/05/26 10:24:53;;;;;;;4.20;0.80;;;18.70;99.90;;;-146.41;100.00;57768.22;5021568;28;20081;-71
2022/05/26 10:27:50;;;;;;;3.50;0.60;;;18.60;99.90;;;-146.41;100.00;57768.22;5020311;28;20049;-72
2022/05/26 10:31:26;;;;;;;4.20;0.50;;;18.80;99.90;;;-146.41;100.00;57768.22;5017212;28;20049;-74
2022/05/26 10:34:09;;;;;;;3.40;0.50;;;19.30;99.90;;;-146.41;100.00;57768.22;4984963;28;20520;-73
2022/05/26 10:37:02;;;;;;;;;;;19.60;99.90;;;-146.41;100.00;57768.22;5020849;28;20076;-72
2022/05/26 10:39:54;;;;;;;2.42;0.60;;;20.10;99.90;;;-146.41;100.00;57768.22;5024292;28;19921;-72
2022/05/26 10:42:38;;;;;;;1.88;0.60;;;20.40;99.90;;;-146.41;100.00;57768.22;5021456;28;20135;-74
2022/05/26 10:45:19;;;;;;;2.72;0.50;;;20.50;99.90;;;-146.41;100.00;57768.22;5015249;28;20108;-76
2022/05/26 10:48:08;;;;;;;2.47;0.50;;;20.30;99.90;;;-146.41;100.00;57768.22;5022784;28;20145;-72
2022/05/26 10:50:46;;;;;;;1.85;0.60;;;19.90;99.90;;;-146.41;100.00;57768.22;5017805;28;20204;-72
2022/05/26 10:53:23;;;;;;;4.30;0.80;;;19.70;99.90;;;-146.41;100.00;57768.22;5023328;28;20045;-72
2022/05/26 10:56:05;;;;;;;2.75;0.70;;;19.40;99.90;;;-146.41;100.00;57768.22;5016878;28;20085;-74
2022/05/26 10:58:35;;;;;;;;;;;19.20;99.90;;;-146.41;100.00;57768.22;5023925;28;20529;-72